createdAt,value
2019-03-22T00:07:19.018Z,53.97
2019-03-22T00:12:06.818Z,54.28
2019-03-22T00:16:12.910Z,54.51
2019-03-22T00:20:24.897Z,54.68
2019-03-22T00:24:36.546Z,54.76
2019-03-22T00:29:08.034Z,54.77
2019-03-22T00:33:22.605Z,55.03
2019-03-22T00:37:32.074Z,55.31
2019-03-22T00:41:41.277Z,55.49
2019-03-22T00:46:08.670Z,55.64
2019-03-22T00:50:16.110Z,55.73
2019-03-22T00:54:43.205Z,55.93
2019-03-22T00:58:49.032Z,56.16
2019-03-22T01:12:06.221Z,56.67
2019-03-22T01:16:17.067Z,56.90
2019-03-22T01:20:27.511Z,57.10
2019-03-22T01:24:37.199Z,57.18
2019-03-22T01:28:44.226Z,57.33
2019-03-22T01:32:58.197Z,57.45
2019-03-22T01:37:07.189Z,57.35
2019-03-22T01:41:16.436Z,57.38
2019-03-22T01:45:45.698Z,57.56
2019-03-22T01:49:53.114Z,57.73
2019-03-22T01:54:04.263Z,57.99
2019-03-22T01:58:09.766Z,58.19
2019-03-22T02:02:16.644Z,58.14
2019-03-22T02:06:24.991Z,58.28
2019-03-22T02:10:33.084Z,58.42
2019-03-22T02:14:48.928Z,58.54
2019-03-22T02:19:24.323Z,58.62
2019-03-22T02:23:30.002Z,58.66
2019-03-22T02:27:35.495Z,58.68
2019-03-22T02:31:44.598Z,58.79
2019-03-22T02:35:50.710Z,58.85
2019-03-22T02:39:58.591Z,58.98
2019-03-22T02:44:05.228Z,59.03
2019-03-22T02:48:13.438Z,59.06
2019-03-22T02:52:19.170Z,59.06
2019-03-22T02:56:27.467Z,59.12
2019-03-22T03:00:34.288Z,59.13
2019-03-22T03:04:49.941Z,59.28
2019-03-22T03:08:57.597Z,59.32
2019-03-22T03:13:04.354Z,59.22
2019-03-22T03:17:12.429Z,59.32
2019-03-22T03:21:18.052Z,59.38
2019-03-22T03:25:26.298Z,59.44
2019-03-22T03:29:55.120Z,59.47
2019-03-22T03:34:03.183Z,59.44
2019-03-22T03:38:11.095Z,59.50
2019-03-22T03:42:16.242Z,59.53
2019-03-22T03:46:21.578Z,59.63
2019-03-22T03:50:26.537Z,59.72
2019-03-22T03:54:31.484Z,59.89
2019-03-22T03:58:51.257Z,60.05
2019-03-22T04:02:46.737Z,60.26
2019-03-22T04:06:51.978Z,60.42
2019-03-22T04:10:57.151Z,60.42
2019-03-22T04:15:02.840Z,60.54
2019-03-22T04:19:12.417Z,60.57
2019-03-22T04:23:17.568Z,60.57
2019-03-22T04:27:25.697Z,60.47
2019-03-22T04:31:52.514Z,60.45
2019-03-22T04:35:57.951Z,60.45
2019-03-22T04:40:02.833Z,60.55
2019-03-22T04:44:07.986Z,60.55
2019-03-22T04:48:25.166Z,60.45
2019-03-22T04:52:30.352Z,60.52
2019-03-22T04:56:39.690Z,60.57
2019-03-22T05:00:54.746Z,60.42
2019-03-22T05:05:00.004Z,60.50
2019-03-22T05:09:08.703Z,60.64
2019-03-22T05:13:16.198Z,60.83
2019-03-22T05:17:22.079Z,60.93
2019-03-22T05:21:28.772Z,60.95
2019-03-22T05:25:35.379Z,60.91
2019-03-22T05:29:47.250Z,60.87
2019-03-22T05:33:52.559Z,60.88
2019-03-22T05:38:00.594Z,60.99
2019-03-22T05:42:05.780Z,60.92
2019-03-22T05:46:11.074Z,60.94
2019-03-22T05:50:16.117Z,60.90
2019-03-22T05:54:21.171Z,60.85
2019-03-22T05:58:26.387Z,60.76
2019-03-22T06:02:41.056Z,60.66
2019-03-22T06:06:46.236Z,60.73
2019-03-22T06:10:51.826Z,60.71
2019-03-22T06:14:56.772Z,60.77
2019-03-22T06:19:05.097Z,60.69
2019-03-22T06:23:10.222Z,60.77
2019-03-22T06:27:15.652Z,60.67
2019-03-22T06:31:23.106Z,60.72
2019-03-22T06:35:28.344Z,60.65
2019-03-22T06:39:33.824Z,60.54
2019-03-22T06:43:42.060Z,60.46
2019-03-22T06:47:47.560Z,60.61
2019-03-22T06:51:53.017Z,60.57
2019-03-22T06:55:58.643Z,60.47
2019-03-22T07:00:06.733Z,60.23
2019-03-22T07:04:13.884Z,60.04
2019-03-22T07:08:19.084Z,59.59
2019-03-22T07:12:26.212Z,59.46
2019-03-22T07:16:31.521Z,59.17
2019-03-22T07:20:37.502Z,58.88
2019-03-22T07:24:42.998Z,58.48
2019-03-22T07:28:48.158Z,58.11
2019-03-22T07:32:53.480Z,57.60
2019-03-22T07:36:58.720Z,57.07
2019-03-22T07:41:04.005Z,58.51
2019-03-22T07:45:10.025Z,56.88
2019-03-22T07:49:15.083Z,55.98
2019-03-22T07:53:20.816Z,53.57
2019-03-22T07:57:26.694Z,53.26
2019-03-22T08:01:32.424Z,53.55
2019-03-22T08:05:50.666Z,53.87
2019-03-22T08:09:51.169Z,53.29
2019-03-22T08:13:55.348Z,53.74
2019-03-22T08:18:06.826Z,53.04
2019-03-22T08:22:12.385Z,52.65
2019-03-22T08:26:17.821Z,52.32
2019-03-22T08:30:23.207Z,52.18
2019-03-22T08:34:30.648Z,50.42
2019-03-22T08:38:44.895Z,51.67
2019-03-22T08:42:51.365Z,50.11
2019-03-22T08:46:56.784Z,50.69
2019-03-22T08:51:03.464Z,51.13
2019-03-22T08:55:09.067Z,50.23
2019-03-22T08:59:14.711Z,48.83
2019-03-22T09:03:20.424Z,48.18
2019-03-22T09:07:28.825Z,49.31
2019-03-22T09:11:46.349Z,48.98
2019-03-22T09:15:51.899Z,49.19
2019-03-22T09:19:56.891Z,47.30
2019-03-22T09:24:02.529Z,47.63
2019-03-22T09:28:10.180Z,47.95
2019-03-22T09:32:14.871Z,47.18
2019-03-22T09:36:20.437Z,46.94
2019-03-22T09:40:33.369Z,44.59
2019-03-22T09:44:45.271Z,44.83
2019-03-22T09:48:54.281Z,45.28
2019-03-22T09:53:06.901Z,44.48
2019-03-22T09:57:10.089Z,43.65
2019-03-22T10:06:30.359Z,44.51
2019-03-22T10:10:44.895Z,44.79
2019-03-22T10:15:11.447Z,42.58
2019-03-22T10:19:16.805Z,42.98
2019-03-22T10:23:32.686Z,41.47
2019-03-22T10:28:35.958Z,40.21
2019-03-22T10:33:22.054Z,42.35
2019-03-22T10:42:58.647Z,40.06
2019-03-22T10:47:57.124Z,40.78
2019-03-22T10:52:18.217Z,40.67
2019-03-22T10:56:25.141Z,40.40
2019-03-22T11:01:13.248Z,39.78
2019-03-22T11:05:18.919Z,39.99
2019-03-22T11:09:30.271Z,38.92
2019-03-22T11:13:35.600Z,39.43
2019-03-22T11:17:41.570Z,39.25
2019-03-22T11:21:48.002Z,40.05
2019-03-22T11:26:00.268Z,40.31
2019-03-22T11:30:13.355Z,39.85
2019-03-22T11:34:38.313Z,40.08
2019-03-22T11:38:43.449Z,40.03
2019-03-22T11:43:25.682Z,39.48
2019-03-22T11:48:00.580Z,39.86
2019-03-22T11:52:06.815Z,40.27
2019-03-22T11:56:22.071Z,39.96
2019-03-22T12:00:28.246Z,39.99
2019-03-22T12:04:34.043Z,40.18
2019-03-22T12:08:39.508Z,40.78
2019-03-22T12:17:43.049Z,41.08
2019-03-22T12:21:48.300Z,40.27
2019-03-22T12:25:53.949Z,39.98
2019-03-22T12:29:59.265Z,41.06
2019-03-22T12:34:04.617Z,40.67
2019-03-22T12:38:09.691Z,40.14
2019-03-22T12:42:14.677Z,40.16
2019-03-22T12:46:19.665Z,40.95
2019-03-22T12:50:25.413Z,40.71
2019-03-22T12:54:32.165Z,39.63
2019-03-22T12:58:37.765Z,39.83
2019-03-22T13:02:43.217Z,40.09
2019-03-22T13:06:48.371Z,39.66
2019-03-22T13:10:59.214Z,40.43
2019-03-22T13:15:05.028Z,40.15
2019-03-22T13:19:09.976Z,40.59
2019-03-22T13:23:15.148Z,40.39
2019-03-22T13:27:20.444Z,40.92
2019-03-22T13:31:26.114Z,40.92
2019-03-22T13:35:31.354Z,40.76
2019-03-22T13:39:36.243Z,41.27
2019-03-22T13:43:41.164Z,40.72
2019-03-22T13:47:46.462Z,40.60
2019-03-22T13:51:54.961Z,40.65
2019-03-22T13:56:00.376Z,41.21
2019-03-22T14:00:08.460Z,40.84
2019-03-22T14:10:24.017Z,41.65
2019-03-22T14:14:57.677Z,41.81
2019-03-22T14:24:12.859Z,41.40
2019-03-22T14:28:46.894Z,41.45
2019-03-22T14:32:51.987Z,41.40
2019-03-22T14:36:57.203Z,41.85
2019-03-22T14:41:02.785Z,41.93
2019-03-22T14:45:08.242Z,42.13
2019-03-22T14:49:13.189Z,42.51
2019-03-22T14:53:18.190Z,42.55
2019-03-22T14:57:23.288Z,42.82
2019-03-22T15:01:28.673Z,43.17
2019-03-22T15:05:33.671Z,43.17
2019-03-22T15:09:38.529Z,45.69
2019-03-22T15:13:52.531Z,44.59
2019-03-22T15:18:15.402Z,44.79
2019-03-22T15:22:42.603Z,45.51
2019-03-22T15:27:12.675Z,46.01
2019-03-22T15:31:54.486Z,45.92
2019-03-22T15:36:46.017Z,45.81
2019-03-22T15:40:51.943Z,45.25
2019-03-22T15:44:57.354Z,44.88
2019-03-22T15:49:02.602Z,44.67
2019-03-22T15:53:07.855Z,44.61
2019-03-22T15:57:13.101Z,44.63
2019-03-22T16:01:18.352Z,44.61
2019-03-22T16:05:23.491Z,44.47
2019-03-22T16:09:28.837Z,45.24
2019-03-22T16:13:35.507Z,45.29
2019-03-22T16:17:40.883Z,45.07
2019-03-22T16:21:46.111Z,44.97
2019-03-22T16:25:50.911Z,44.88
2019-03-22T16:29:56.086Z,44.90
2019-03-22T16:34:01.561Z,45.18
2019-03-22T16:38:07.581Z,45.40
2019-03-22T16:42:12.988Z,45.53
2019-03-22T16:46:17.980Z,45.57
2019-03-22T16:50:27.079Z,45.72
2019-03-22T17:05:20.312Z,45.82
2019-03-22T17:09:27.362Z,46.08
2019-03-22T17:14:07.506Z,45.93
2019-03-22T17:18:13.592Z,46.08
2019-03-22T17:27:49.365Z,46.46
2019-03-22T17:41:11.409Z,46.94
2019-03-22T18:30:20.130Z,49.20
2019-03-22T18:35:35.183Z,49.34
2019-03-22T18:44:42.658Z,50.23
2019-03-22T19:04:32.557Z,51.31
2019-03-22T19:09:24.583Z,51.40
2019-03-22T19:42:57.328Z,52.86
2019-03-22T20:03:19.537Z,55.32
2019-03-22T20:12:28.153Z,58.76
2019-03-22T20:17:19.655Z,58.79
2019-03-22T20:25:57.411Z,58.41
2019-03-22T20:30:03.083Z,58.41
2019-03-22T20:34:07.849Z,58.84
2019-03-22T20:38:12.814Z,58.19
2019-03-22T20:42:17.901Z,58.19
2019-03-22T20:46:22.870Z,58.22
2019-03-22T20:50:35.420Z,58.14
2019-03-22T20:54:34.294Z,57.99
2019-03-22T20:58:39.044Z,57.84
2019-03-22T21:02:44.157Z,57.83
2019-03-22T21:06:48.987Z,57.83
2019-03-22T21:10:54.153Z,58.20
2019-03-22T21:14:58.932Z,58.20
2019-03-22T21:19:03.743Z,58.06
2019-03-22T21:23:08.549Z,58.15
2019-03-22T21:27:15.844Z,58.15
2019-03-22T21:31:19.812Z,58.29
2019-03-22T21:35:24.859Z,58.49
2019-03-22T21:39:29.624Z,58.70
2019-03-22T21:43:34.583Z,58.82
2019-03-22T21:47:39.890Z,58.83
2019-03-22T21:51:44.598Z,59.12
2019-03-22T21:55:49.785Z,59.01
2019-03-22T21:59:54.534Z,58.90
2019-03-22T22:03:59.324Z,58.62
2019-03-22T22:08:04.115Z,58.80
2019-03-22T22:12:08.985Z,59.15
2019-03-22T22:16:14.157Z,59.52
2019-03-22T22:20:28.400Z,59.77
2019-03-22T22:24:25.434Z,59.95
2019-03-22T22:28:30.220Z,59.94
2019-03-22T22:32:34.976Z,59.94
2019-03-22T22:36:39.758Z,59.93
2019-03-22T22:40:44.673Z,59.85
2019-03-22T22:44:49.438Z,60.00
2019-03-22T22:48:54.808Z,60.24
2019-03-22T22:52:59.601Z,60.32
2019-03-22T22:57:04.817Z,60.20
2019-03-22T23:01:09.945Z,60.49
2019-03-22T23:05:15.020Z,60.67
2019-03-22T23:09:19.812Z,60.94
2019-03-22T23:13:24.555Z,61.11
2019-03-22T23:17:29.382Z,61.12
2019-03-22T23:21:34.316Z,61.12
2019-03-22T23:25:39.182Z,61.23
2019-03-22T23:29:44.032Z,61.32
2019-03-22T23:33:48.843Z,61.33
2019-03-22T23:37:53.566Z,61.38
2019-03-22T23:41:58.399Z,61.11
2019-03-22T23:46:03.209Z,61.08
2019-03-22T23:50:08.263Z,61.50
2019-03-22T23:54:13.069Z,61.86
2019-03-22T23:58:18.116Z,61.87
